»·PEaware :: N854D KDAG-KBLH

N854D :: KDAG-KBLH

FLIGHT INFORMATION

Flight Status: Arrived
Operator: Privately registered:
United States
More flights under this callsign
Pilot: Bill H. (23183)
Aircraft: CESSNA 172 SKYHAWK
(C172)
More flights by this aircraft type
Origin: KDAG Barstow-Daggett
United States
Destination: KBLH Blythe
United States
More flights between these airports :: More routes between these airports
Route: KDAG L22 KBLH
File this flight plan on PilotEdge
Remarks: +CW / Training Flight
Altitude:
(Current/Filed)
5,500ft
Speed:
(Current/Filed)
120kts
Departed: 07-Apr-19 07:05 AM
Arrived: 07-Apr-19 08:19 AM
Distance/Time
Traveled:
127nm/1:13
Distance/Time
To Go:
Arrived

Flight Plot

Page will automatically refresh every two minutes.

Flight plan parsing failed; only flown route is shown


Map Options




Map Legend


Flown Route
Filed Route
Departure Airport
Arrival Airport
Navaid (VOR, NDB)
Fix

Horizontal Profiles

Position Reports

Time Latitude Longitude Heading Altitude Ground
Speed
07-Apr-19 06:55 34.855754 -116.791096 143 1920ft 0kts
07-Apr-19 06:56 34.855754 -116.791096 143 1920ft 0kts
07-Apr-19 06:57 34.855754 -116.791096 143 1920ft 0kts
07-Apr-19 06:58 34.855754 -116.791096 143 1920ft 0kts
07-Apr-19 06:59 34.854941 -116.791087 146 1920ft 7kts
07-Apr-19 07:00 34.853543 -116.792423 229 1923ft 7kts
07-Apr-19 07:01 34.852452 -116.795090 272 1927ft 9kts
07-Apr-19 07:02 34.852235 -116.797590 212 1930ft 0kts
07-Apr-19 07:03 34.852235 -116.797590 212 1930ft 0kts
07-Apr-19 07:04 34.851442 -116.797416 91 1930ft 2kts
07-Apr-19 07:05 34.851549 -116.783948 88 2239ft 75kts
07-Apr-19 07:06 34.842966 -116.764520 182 3059ft 87kts
07-Apr-19 07:07 34.818323 -116.764901 166 3945ft 82kts
07-Apr-19 07:08 34.795999 -116.755688 157 4730ft 87kts
07-Apr-19 07:09 34.773015 -116.743896 156 5444ft 92kts
07-Apr-19 07:10 34.744693 -116.729062 156 5500ft 119kts
07-Apr-19 07:10 34.719283 -116.715675 156 5500ft 119kts
07-Apr-19 07:12 34.683743 -116.696931 156 5500ft 119kts
07-Apr-19 07:13 34.655584 -116.682044 156 6015ft 107kts
07-Apr-19 07:13 34.632742 -116.670004 156 6433ft 107kts
07-Apr-19 07:14 34.605405 -116.655613 156 6932ft 107kts
07-Apr-19 07:16 34.573465 -116.638813 156 7516ft 106kts
07-Apr-19 07:16 34.548316 -116.625643 156 7497ft 117kts
07-Apr-19 07:17 34.520122 -116.610880 156 7415ft 89kts
07-Apr-19 07:18 34.501181 -116.605262 174 6854ft 88kts
07-Apr-19 07:19 34.478014 -116.589825 151 7261ft 104kts
07-Apr-19 07:20 34.450498 -116.574349 156 7502ft 118kts
07-Apr-19 07:21 34.419983 -116.558340 156 7499ft 120kts
07-Apr-19 07:22 34.389160 -116.542250 156 7499ft 121kts
07-Apr-19 07:23 34.358199 -116.526092 156 7499ft 121kts
07-Apr-19 07:24 34.327206 -116.509917 156 7499ft 121kts
07-Apr-19 07:25 34.296254 -116.493773 156 7499ft 121kts
07-Apr-19 07:26 34.265372 -116.477669 156 7499ft 121kts
07-Apr-19 07:27 34.234413 -116.461535 156 7499ft 121kts
07-Apr-19 07:28 34.203470 -116.445423 156 7499ft 121kts
07-Apr-19 07:29 34.172547 -116.429332 156 7499ft 121kts
07-Apr-19 07:30 34.141681 -116.413280 156 7499ft 120kts
07-Apr-19 07:31 34.123290 -116.380666 111 7499ft 121kts
07-Apr-19 07:32 34.111540 -116.343914 110 7499ft 121kts
07-Apr-19 07:33 34.108248 -116.333110 110 7496ft 121kts
07-Apr-19 07:34 34.096818 -116.294860 109 7498ft 120kts
07-Apr-19 07:35 34.085498 -116.256615 109 7498ft 121kts
07-Apr-19 07:36 34.074231 -116.218504 109 7498ft 120kts
07-Apr-19 07:37 34.062899 -116.180199 109 7498ft 121kts
07-Apr-19 07:38 34.051655 -116.142234 109 7499ft 121kts
07-Apr-19 07:39 34.040496 -116.104627 109 7497ft 118kts
07-Apr-19 07:40 34.029290 -116.066901 109 7498ft 116kts
07-Apr-19 07:41 34.018172 -116.029478 109 7498ft 121kts
07-Apr-19 07:42 34.006644 -115.990743 109 7498ft 123kts
07-Apr-19 07:43 33.994827 -115.951106 109 7498ft 123kts
07-Apr-19 07:44 33.983241 -115.912293 109 7498ft 123kts
07-Apr-19 07:45 33.971613 -115.873391 109 7498ft 123kts
07-Apr-19 07:46 33.959985 -115.834543 109 7498ft 123kts
07-Apr-19 07:47 33.948383 -115.795832 109 7498ft 123kts
07-Apr-19 07:48 33.936753 -115.757079 109 7498ft 123kts
07-Apr-19 07:49 33.925098 -115.718294 109 7498ft 123kts
07-Apr-19 07:50 33.913422 -115.679488 109 7498ft 123kts
07-Apr-19 07:51 33.901722 -115.640650 109 7498ft 123kts
07-Apr-19 07:52 33.890072 -115.602057 109 7497ft 120kts
07-Apr-19 07:53 33.878728 -115.564516 109 7498ft 119kts
07-Apr-19 07:54 33.867384 -115.527008 109 7498ft 119kts
07-Apr-19 07:55 33.855999 -115.489420 109 7498ft 119kts
07-Apr-19 07:56 33.844587 -115.451788 109 7498ft 119kts
07-Apr-19 07:57 33.833084 -115.413869 109 7498ft 123kts
07-Apr-19 07:58 33.821202 -115.374771 109 7498ft 125kts
07-Apr-19 07:59 33.809213 -115.335384 110 7498ft 125kts
07-Apr-19 08:00 33.797664 -115.297557 110 7496ft 114kts
07-Apr-19 08:01 33.786770 -115.261740 109 7500ft 119kts
07-Apr-19 08:02 33.775115 -115.223283 110 7498ft 123kts
07-Apr-19 08:03 33.763285 -115.184586 110 7498ft 123kts
07-Apr-19 08:04 33.751424 -115.145863 110 7497ft 122kts
07-Apr-19 08:05 33.739745 -115.107792 110 7497ft 120kts
07-Apr-19 08:06 33.728105 -115.069882 110 7498ft 120kts
07-Apr-19 08:07 33.716533 -115.032246 110 7498ft 120kts
07-Apr-19 08:08 33.704845 -114.994296 110 7401ft 123kts
07-Apr-19 08:09 33.693558 -114.957784 110 6740ft 115kts
07-Apr-19 08:10 33.682461 -114.921861 110 5738ft 113kts
07-Apr-19 08:11 33.671736 -114.887157 110 4736ft 109kts
07-Apr-19 08:12 33.661004 -114.852499 110 3577ft 104kts
07-Apr-19 08:13 33.651273 -114.821056 110 2670ft 98kts
07-Apr-19 08:14 33.640364 -114.792520 124 1972ft 90kts
07-Apr-19 08:15 33.626378 -114.770513 128 1463ft 76kts
07-Apr-19 08:16 33.616969 -114.747864 98 850ft 77kts
07-Apr-19 08:17 33.616449 -114.724691 90 394ft 47kts
07-Apr-19 08:18 33.615425 -114.722899 173 394ft 7kts
07-Apr-19 08:19 33.614992 -114.718593 89 394ft 17kts

Navigation Log

Ident Type
Flight plan parsing failed, navigation log unavailable